Wind Gültig von: 17-09-2019 04:13 bis: 19:00 Warnung für: Wind Gefahrenstufe: Orange info button

Meine Webcam more information My webcam


Donnerradar more information blitzortung!


Regenradar more information rain snow radar



METAR-Meldungen aus der Umgebung

   
EDDH - Hamburg
Aktualisierung: 17-09-2019 15:50
leicht bewölkt  
leicht bewölkt  
   Wind: WNW 44.4 km/h<br />Gust to 44.4 km/h
Wind: WNW 44.4 km/h
Gust to 44.4 km/h
Temperatur: 14°C
Taupunkt: 5°C
Luftfeuchte: 55%
Luftdruck: 1014 hPa
Bewölkt: leicht bewölkt
Sichtbarkeit: More than 10 km
Bewölkung: leicht bewölkt 2000 ft,
leicht bewölkt 3000 ft
EDDH 171350Z 30024G36KT 270V330 9999 FEW020 FEW030CB 14/05 Q1014 TEMPO SHRA
EDHL - Lübeck
Aktualisierung: 17-09-2019 15:50
Nearby Showers, Teilweise bewölkt  
Nearby Showers, Teilweise bewölkt  
   Wind: WNW 18.5 km/h<br />Gust to 18.5 km/h
Wind: WNW 18.5 km/h
Gust to 18.5 km/h
Temperatur: 12°C
Taupunkt: 6°C
Luftfeuchte: 67%
Luftdruck: 1012 hPa
Bewölkt: Teilweise bewölkt
Sichtbarkeit: More than 10 km
Bewölkung: Teilweise bewölkt 3300 ft
EDHL 171350Z 30010G28KT 240V030 9999 VCSH SCT033CB 12/06 Q1012 RERA
EHBK - Amsterdam
Aktualisierung: 17-09-2019 15:55
Stark bewölkt  
Stark bewölkt  
   Wind: NW 14.8 km/h
Wind: NW 14.8 km/h
Temperatur: 17°C
Taupunkt: 8°C
Luftfeuchte: 56%
Luftdruck: 1022 hPa
Bewölkt: Stark bewölkt
Sichtbarkeit: More than 10 km
Bewölkung: leicht bewölkt 4100 ft,
Stark bewölkt 4800 ft
EHBK 171355Z AUTO 32008KT 260V360 9999 FEW041 BKN048 17/08 Q1022 NOSIG
EBCV - Mons/Bergen
Aktualisierung: 17-09-2019 15:55
Teilweise bewölkt  
Teilweise bewölkt  
   Wind: NNW 18.5 km/h
Wind: NNW 18.5 km/h
Temperatur: 19°C
Taupunkt: 7°C
Luftfeuchte: 46%
Luftdruck: 1023 hPa
Bewölkt: Teilweise bewölkt
Sichtbarkeit: More than 10 km
Bewölkung: Teilweise bewölkt 4400 ft
EBCV 171355Z AUTO 33010KT 9999 SCT044/// 19/07 Q1023 BLU
ELLX - Luxemburg
Aktualisierung: 17-09-2019 15:50
leicht bewölkt  
leicht bewölkt  
   Wind: WNW 13 km/h
Wind: WNW 13 km/h
Temperatur: 19°C
Taupunkt: 7°C
Luftfeuchte: 46%
Luftdruck: 1021 hPa
Bewölkt: leicht bewölkt
Sichtbarkeit: More than 10 km
Bewölkung: leicht bewölkt 4800 ft
ELLX 171350Z 30007KT 270V020 9999 FEW048 19/07 Q1021 NOSIG
EBOS - Oostende
Aktualisierung: 17-09-2019 15:50
Teilweise bewölkt  
Teilweise bewölkt  
   Wind: Norden 20.4 km/h
Wind: Norden 20.4 km/h
Temperatur: 17°C
Taupunkt: 8°C
Luftfeuchte: 56%
Luftdruck: 1025 hPa
Bewölkt: Teilweise bewölkt
Sichtbarkeit: More than 10 km
Bewölkung: Teilweise bewölkt 2700 ft
EBOS 171350Z 36011KT 330V030 9999 SCT027 17/08 Q1025 NOSIG

Script entwickelt von  Saratoga-weather.org Angepasst für das Template von  Weerstation Leuven

Sie finden meine Wetter-Infos auch auf:

Weather Underground

Germany Weather Network

AWEKAS

WeatherlinkIP

Von mir verwendete Ausrüstung:

Wetterstation
Davis VP2

Wetterprogramm
Weather Display

WetterComputer
RaspberryPi

Anbieter
1und1

Davis VP2

Weather Display

RaspberryPi

1und1